Mountain Lake, Minnesota
Current Conditions -  °F | °C
As of 4:13 AM on Monday 26 Jan 2015 (Local Time) from KMWM Reporting Station
Overcast Overcast  
Wind Chill: 22°   Ceiling: 6000
Heat Index: 32°   Visibility: 10mi
Dew Point: 30°   Wind: 14mph
Humidity: 93%   Direction: 200°SSW
Pressure: 29.8"   Gusts: 17mph
Location:  43.94°N, 94.93°W
Report Text: KMWM 261013Z AUTO 20012G15KT 10SM SCT008 BKN060 OVC090 00/M01 A2980 RMK AO2
Loading
Personal Weather Stations






























Interactive Weather Map New forecast layout! Learn more

10-Day Weather Forecast

Advertisements
Track Severe Weather on mobile